Aeroporto :
LOGIN :

Iscrizione | Disclaimer

   EN    FR    IT 

 










Sommario :    VFR   VFR Marginale   IFR   IFR Intensivo   IFR Molto Intensivo
Visibilità : 
Base nubi : 
>= 8 km
>= 3000ft
5 / 8 km
1000 / 3000 ft
1500m / 5 km
500 / 1000 ft
800 / 1500m
200 / 500 ft
< 800m
< 200 ft
Simboli :   Temporali  Nebbia  Neve Forte  Precipitazioni Forti  Vento > 20 kt
SIGMETs :   Varie  Temporali  Ghiacco  Turbolenza  Onda orograficha  Ceneri Vulcaniche







- Altitudine del aeroporto : 499 ft
- Codice IATA : TLS
- Carte del aeroporto


LFBO - Toulouse / Blagnac

ULTIMO METAR :
  • 260030Z AUTO 16005KT CAVOK 20/18 Q1017 NOSIG

METARs OBSOLETI :
  • 260000Z AUTO 20004KT CAVOK 21/17 Q1017 NOSIG
  • 252330Z AUTO 15002KT CAVOK 21/18 Q1017 NOSIG
  • 252300Z AUTO 17002KT CAVOK 23/17 Q1017 NOSIG
  • 252230Z AUTO VRB02KT CAVOK 23/17 Q1017 NOSIG
  • 252200Z AUTO VRB02KT CAVOK 25/16 Q1017 NOSIG

TAF TAF LFBO
Valido dal 26 a 00 ore il 27 a 06 ore UTC


252300Z 2600/2706 VRB03KT CAVOK
BECMG 2609/2611 14007KT
TEMPO 2615/2620 14015KT
ATIS : +33 5 62 74 66 36
Nessun NOTAM noto per questo aeroporto.



MetMap, La meteo Aeronautica in un colpo d'occhio ! - Copyright ORBIFLY Dicembre 2007 - Disclaimer

ORBIFLY MET'MAP TEAM :

Programmazione e sviluppo : Alexandra Zaïnal
Concezione e sviluppo : Baudouin d'Aumeries
Co-Programmazione e sviluppo : Marc-Olivier Méhu
Supporto tecnico e logistico : Manuel Goepfert
Aiuto per la traduzione : Arnaldo La Scala

Contatto : metmap@orbifly.com




FONTI E CREDITI :

   NOAA